This is the latest recevied weather packets stored in our database for station/object W0JRT-6. If no packets are shown the sender has not sent any weather packets the latest 10 day(s).
| Time | Temp. | Humidity | Pressure | Rain* | Wind** | Luminosity | Snow |
|---|---|---|---|---|---|---|---|
| 1777975798 | 12.78° C | 52% | 1006.3 hPa | 0 mm | - | - | - |
| 1777974598 | 12.78° C | 52% | 1006.9 hPa | 0 mm | - | - | - |
| 1777973402 | 12.78° C | 52% | 1006.9 hPa | 0 mm | - | - | - |
| 1777972799 | 13.33° C | 50% | 1006.6 hPa | 0 mm | - | - | - |
| 1777972200 | 13.33° C | 50% | 1006.4 hPa | 0 mm | - | - | - |
| 1777971604 | 13.33° C | 50% | 1005.7 hPa | 0 mm | - | - | - |
| 1777970997 | 13.33° C | 50% | 1005.6 hPa | 0 mm | - | - | - |
| 1777970399 | 13.33° C | 49% | 1005.2 hPa | 0 mm | - | - | - |
| 1777969205 | 13.33° C | 49% | 1004.6 hPa | 0 mm | - | - | - |
| 1777968605 | 13.33° C | 49% | 1004.3 hPa | 0 mm | - | - | - |
| 1777968008 | 13.33° C | 48% | 1004.6 hPa | 0 mm | - | - | - |
| 1777967402 | 13.89° C | 48% | 1005.6 hPa | 0 mm | - | - | - |
| 1777966808 | 13.33° C | - | 1006.2 hPa | 0 mm | - | - | - |
| 1777966209 | 13.33° C | 58% | 1005.6 hPa | 0 mm | - | - | - |
| 1777965002 | 13.89° C | 54% | 1005.2 hPa | 0 mm | - | - | - |
| 1777964406 | 15° C | 48% | 1005.4 hPa | 0 mm | - | - | - |
| 1777963805 | 15.56° C | 44% | 1005.3 hPa | 0 mm | - | - | - |
| 1777963199 | 15.56° C | 43% | 1004.9 hPa | 0 mm | - | - | - |
| 1777962598 | 16.11° C | 41% | 1003.8 hPa | 0 mm | - | - | - |
| 1777962008 | 16.67° C | 41% | 1003.2 hPa | 0 mm | - | - | - |
| 1777961399 | 16.67° C | 38% | 1002.8 hPa | 0 mm | - | - | - |
| 1777960802 | 17.22° C | 39% | 1002.5 hPa | 0 mm | - | - | - |
| 1777960207 | 17.22° C | 38% | 1002 hPa | 0 mm | - | - | - |
| 1777959600 | 17.78° C | 37% | 1001.8 hPa | 0 mm | - | - | - |
| 1777959002 | 18.33° C | 36% | 1001.5 hPa | 0 mm | - | - | - |
* Rain since midnight (hover to see other rain measurements)
** Current wind speed in m/s (hover to see current wind gust speed)